Normed Antwerpen — V2DG9 — position and weather

sailwx.info

Track history (hours):
 
Tides and Currents Weather Stations Pressure Air Temp Water Temp Dewpoint Dewpoint Depression Visibility Wind Speed Wind Dir Waves Ship Positions

Normed Antwerpen

Last reported at 2014-Jul-30 21:14 UTC. Time now 2014-Jul-31 03:27 UTC.
Position N 50°25' W 001°23'.

Length 130 m; draft 6.2 m.

Type: Ship. MMSI: 305210993.

Date/timePositionNaut miles runAvg speedWind from/ knotsBaromVisibWave heightAir tempDewpointWater temp
2014-Jul-30 21:14N 50°25' W 001°23'710.0
2014-Jul-30 20:33N 50°28' W 001°13'1110.6
2014-Jul-30 19:33N 50°35' W 001°01'1010.0
2014-Jul-30 18:33N 50°45' W 001°05'1010.3
2014-Jul-30 17:34N 50°50' W 001°19'6 6.3
2014-Jul-30 16:34N 50°54' W 001°26'0 0.0
2014-Jul-30 15:12N 50°54' W 001°26'0 0.0
2014-Jul-30 14:33N 50°54' W 001°26'0 0.0
2014-Jul-30 13:32N 50°54' W 001°26'0 0.0
2014-Jul-30 12:20N 50°54' W 001°26'0 0.0
2014-Jul-30 11:28N 50°54' W 001°26'0 0.0
2014-Jul-30 10:28N 50°54' W 001°26'0 0.0
2014-Jul-30 09:33N 50°54' W 001°26'0 0.0
2014-Jul-30 08:30N 50°54' W 001°26'0 0.0
2014-Jul-30 07:33N 50°54' W 001°26'0 0.0
2014-Jul-30 06:32N 50°54' W 001°26'0 0.0
2014-Jul-30 05:32N 50°54' W 001°26'0 0.0
2014-Jul-30 04:31N 50°54' W 001°26'0 0.0
2014-Jul-30 03:31N 50°54' W 001°26'0 0.0
2014-Jul-30 02:27N 50°54' W 001°26'0 0.0
2014-Jul-30 01:33N 50°54' W 001°26'0 0.0
2014-Jul-30 00:30N 50°54' W 001°26'0 0.0
2014-Jul-29 23:32N 50°54' W 001°26'0 0.0
2014-Jul-29 22:29N 50°54' W 001°26'0 0.0
2014-Jul-29 21:31N 50°54' W 001°26'0 0.0
2014-Jul-29 17:30N 50°54' W 001°26'0 0.0
2014-Jul-29 16:29N 50°54' W 001°26'0 0.0
2014-Jul-29 11:15N 50°54' W 001°26'0 0.0
2014-Jul-29 10:18N 50°54' W 001°26'0 0.0
2014-Jul-29 09:32N 50°54' W 001°26'0 0.0
2014-Jul-29 08:29N 50°54' W 001°26'0 0.0
2014-Jul-29 07:31N 50°54' W 001°26'0 0.0
2014-Jul-29 06:28N 50°54' W 001°26'0 0.0
2014-Jul-29 05:25N 50°54' W 001°26'0 0.0
2014-Jul-29 04:33N 50°54' W 001°26'0 0.0
2014-Jul-29 03:33N 50°54' W 001°26'0 0.0
2014-Jul-29 02:29N 50°54' W 001°26'0 0.0
2014-Jul-29 01:29N 50°54' W 001°26'0 0.0
2014-Jul-29 00:31N 50°54' W 001°26'0 0.0
2014-Jul-28 23:31N 50°54' W 001°26'0 0.0
2014-Jul-28 22:23N 50°54' W 001°26'0 0.0
2014-Jul-28 21:33N 50°54' W 001°26'0 0.0
2014-Jul-28 20:33N 50°54' W 001°26'0 0.0
2014-Jul-28 18:20N 50°54' W 001°26'1 0.3
2014-Jul-28 15:19N 50°54' W 001°25'7 9.2
2014-Jul-28 14:34N 50°49' W 001°18'1111.3
2014-Jul-28 13:33N 50°43' W 001°02'5 4.6
2014-Jul-28 12:33N 50°39' W 001°01'0 0.1
2014-Jul-28 11:30N 50°39' W 001°00'0 0.1
2014-Jul-28 10:32N 50°39' W 001°00'0 0.0
2014-Jul-28 09:29N 50°39' W 001°00'0 0.0
2014-Jul-28 08:25N 50°39' W 001°00'0 0.0
2014-Jul-28 07:28N 50°39' W 001°00'3 3.2
2014-Jul-28 06:33N 50°37' W 000°56'1110.7
2014-Jul-28 05:33N 50°37' W 000°39'1111.3
2014-Jul-28 04:33N 50°35' W 000°22'2613.2
2014-Jul-28 02:33N 50°35' E 000°20'1313.3
2014-Jul-28 01:33N 50°40' E 000°39'1212.4
2014-Jul-28 00:33N 50°47' E 000°55'1211.5
2014-Jul-27 23:33N 50°54' E 001°09'1211.5
2014-Jul-27 22:31N 51°02' E 001°24'1313.8
2014-Jul-27 21:33N 51°11' E 001°40'1515.1
2014-Jul-27 20:34N 51°23' E 001°54'1514.6
2014-Jul-27 19:34N 51°35' E 002°08'1414.2
2014-Jul-27 18:34N 51°46' E 002°22'1313.0
2014-Jul-27 17:33N 51°55' E 002°37'1512.5
2014-Jul-27 16:22N 52°06' E 002°53'6012.4
2014-Jul-27 11:31N 52°54' E 003°52'1413.9
2014-Jul-27 10:32N 53°03' E 004°10'1313.4
2014-Jul-27 09:32N 53°13' E 004°25'1513.1
2014-Jul-27 08:22N 53°27' E 004°36'1111.8
2014-Jul-27 07:28N 53°31' E 004°52'1111.8
2014-Jul-27 06:33N 53°35' E 005°09'1211.7
2014-Jul-27 05:33N 53°39' E 005°28'1312.5
2014-Jul-27 04:33N 53°43' E 005°48'1413.8
2014-Jul-27 03:32N 53°47' E 006°10'5513.5
2014-Jul-26 23:30N 53°58' E 007°41'1111.6
2014-Jul-26 22:34N 53°52' E 007°57'1211.6
2014-Jul-26 21:33N 53°45' E 008°13'1111.1
2014-Jul-26 20:33N 53°38' E 008°27'8 7.8
2014-Jul-26 19:34N 53°31' E 008°31'1212.5
2014-Jul-26 18:34N 53°18' E 008°30'1010.3
2014-Jul-26 17:33N 53°09' E 008°38'5 5.0
2014-Jul-26 16:32N 53°06' E 008°44'0 0.0
2014-Jul-26 15:32N 53°06' E 008°44'0 0.0
2014-Jul-26 14:33N 53°06' E 008°44'0 0.0
2014-Jul-26 13:31N 53°06' E 008°44'0 0.0
2014-Jul-26 12:33N 53°06' E 008°44'0 0.0
2014-Jul-26 11:33N 53°06' E 008°44'0 0.0
2014-Jul-26 10:33N 53°06' E 008°44'0 0.0
2014-Jul-26 09:33N 53°06' E 008°44'0 0.0
2014-Jul-26 08:33N 53°06' E 008°44'0 0.0
2014-Jul-26 07:33N 53°06' E 008°44'0 0.0
2014-Jul-26 06:33N 53°06' E 008°44'0 0.0
2014-Jul-26 05:33N 53°06' E 008°44'0 0.0
2014-Jul-26 04:33N 53°06' E 008°44'0 0.0
2014-Jul-26 03:33N 53°06' E 008°44'0 0.0
2014-Jul-26 02:33N 53°06' E 008°44'0 0.0
2014-Jul-26 01:34N 53°06' E 008°44'0 0.0
2014-Jul-26 00:34N 53°06' E 008°44'0 0.0
2014-Jul-25 23:33N 53°06' E 008°44'0 0.0
2014-Jul-25 22:33N 53°06' E 008°44'0 0.0
2014-Jul-25 21:33N 53°06' E 008°44'0 0.0
2014-Jul-25 20:33N 53°06' E 008°44'3 2.8
2014-Jul-25 19:33N 53°07' E 008°40'8 7.8
2014-Jul-25 18:33N 53°12' E 008°30'9 8.9
2014-Jul-25 17:33N 53°21' E 008°30'1010.1
2014-Jul-25 16:33N 53°31' E 008°33'9 9.4
2014-Jul-25 15:33N 53°39' E 008°24'1111.1
2014-Jul-25 14:33N 53°46' E 008°10'1111.2
2014-Jul-25 13:33N 53°52' E 007°54'1211.9
2014-Jul-25 12:33N 53°54' E 007°33'5313.2
2014-Jul-25 08:32N 53°41' E 006°06'1414.0
2014-Jul-25 07:34N 53°37' E 005°44'1414.3
2014-Jul-25 06:33N 53°32' E 005°21'1414.4
2014-Jul-25 05:34N 53°28' E 004°59'1413.9
2014-Jul-25 04:33N 53°19' E 004°40'1515.3
2014-Jul-25 03:33N 53°06' E 004°28'1515.1
2014-Jul-25 02:33N 52°52' E 004°16'1514.6
2014-Jul-25 01:33N 52°41' E 004°01'1514.6
2014-Jul-25 00:33N 52°31' E 003°44'1414.1
2014-Jul-24 23:33N 52°19' E 003°31'1413.7
2014-Jul-24 22:33N 52°05' E 003°26'1313.0
2014-Jul-24 21:33N 51°53' E 003°22'1212.1
2014-Jul-24 20:33N 51°42' E 003°12'1211.9
2014-Jul-24 19:33N 51°31' E 003°05'7 7.5
2014-Jul-24 18:34N 51°24' E 003°11'1615.7
2014-Jul-24 17:34N 51°26' E 003°36'1312.5
2014-Jul-24 16:33N 51°22' E 003°55'1010.5
2014-Jul-24 15:34N 51°24' E 004°11'9 9.1
2014-Jul-24 14:34N 51°17' E 004°20'0 0.5
2014-Jul-24 13:33N 51°16' E 004°20'3 2.7
2014-Jul-24 12:33N 51°15' E 004°24'0 0.0
2014-Jul-24 11:33N 51°15' E 004°24'0 0.0
2014-Jul-24 10:33N 51°15' E 004°24'0 0.0
2014-Jul-24 09:32N 51°15' E 004°24'0 0.0
2014-Jul-24 08:32N 51°15' E 004°24'0 0.0
2014-Jul-24 07:31N 51°15' E 004°24'0 0.0
2014-Jul-24 06:31N 51°15' E 004°24'0 0.0
2014-Jul-24 05:34N 51°15' E 004°24'0 0.0
2014-Jul-24 04:33N 51°15' E 004°24'0 0.0
2014-Jul-24 03:33N 51°15' E 004°24'0 0.0
2014-Jul-24 02:32N 51°15' E 004°24'0 0.0
2014-Jul-24 01:32N 51°15' E 004°24'0 0.0
2014-Jul-24 00:31N 51°15' E 004°24'0 0.0
2014-Jul-23 23:31N 51°15' E 004°24'0 0.0
2014-Jul-23 22:33N 51°15' E 004°24'0 0.0
2014-Jul-23 21:33N 51°15' E 004°24'0 0.0
2014-Jul-23 20:33N 51°15' E 004°24'0 0.0
2014-Jul-23 19:32N 51°15' E 004°24'0 0.0
2014-Jul-23 18:32N 51°15' E 004°24'0 0.0
2014-Jul-23 17:28N 51°15' E 004°24'0 0.0
2014-Jul-23 16:31N 51°15' E 004°24'0 0.0
2014-Jul-23 15:33N 51°15' E 004°24'0 0.0
2014-Jul-23 14:33N 51°15' E 004°24'0 0.0
2014-Jul-23 13:33N 51°15' E 004°24'0 0.0
2014-Jul-23 12:32N 51°15' E 004°24'0 0.0
2014-Jul-23 11:29N 51°15' E 004°24'0 0.0
2014-Jul-23 10:31N 51°15' E 004°24'0 0.0
2014-Jul-23 09:31N 51°15' E 004°24'0 0.0
2014-Jul-23 08:33N 51°15' E 004°24'0 0.0
2014-Jul-23 07:33N 51°15' E 004°24'0 0.0
2014-Jul-23 06:33N 51°15' E 004°24'0 0.0
2014-Jul-23 05:32N 51°15' E 004°24'0 0.0
2014-Jul-23 04:32N 51°15' E 004°24'0 0.0
2014-Jul-23 03:31N 51°15' E 004°24'0 0.0
2014-Jul-23 02:31N 51°15' E 004°24'0 0.0
2014-Jul-23 01:30N 51°15' E 004°24'0 0.0
2014-Jul-23 00:33N 51°15' E 004°24'0 0.0
2014-Jul-22 23:33N 51°15' E 004°24'0 0.0
2014-Jul-22 22:32N 51°15' E 004°24'0 0.0
2014-Jul-22 21:32N 51°15' E 004°24'0 0.0
2014-Jul-22 20:31N 51°15' E 004°24'0 0.0
2014-Jul-22 19:31N 51°15' E 004°24'0 0.0
2014-Jul-22 18:33N 51°15' E 004°24'0 0.0
2014-Jul-22 17:33N 51°15' E 004°24'0 0.0
2014-Jul-22 16:33N 51°15' E 004°24'0 0.3
2014-Jul-22 15:33N 51°15' E 004°24'3 2.8
2014-Jul-22 14:33N 51°17' E 004°20'0 0.2
2014-Jul-22 13:31N 51°17' E 004°21'0 0.0
2014-Jul-22 12:31N 51°17' E 004°21'0 0.0
2014-Jul-22 11:27N 51°17' E 004°21'0 0.0
2014-Jul-22 10:33N 51°17' E 004°21'0 0.0
2014-Jul-22 09:32N 51°17' E 004°21'0 0.0
2014-Jul-22 08:29N 51°17' E 004°21'0 0.0
2014-Jul-22 07:29N 51°17' E 004°21'0 0.0
2014-Jul-22 06:31N 51°17' E 004°21'0 0.0
2014-Jul-22 05:31N 51°17' E 004°21'0 0.0
2014-Jul-22 04:30N 51°17' E 004°21'0 0.0
2014-Jul-22 03:33N 51°17' E 004°21'0 0.0
2014-Jul-22 02:32N 51°17' E 004°21'0 0.0
2014-Jul-22 01:32N 51°17' E 004°21'0 0.0
2014-Jul-22 00:29N 51°17' E 004°21'0 0.0
2014-Jul-21 23:31N 51°17' E 004°21'0 0.0
2014-Jul-21 22:31N 51°17' E 004°21'0 0.0
2014-Jul-21 21:27N 51°17' E 004°21'0 0.0
2014-Jul-21 20:33N 51°17' E 004°21'0 0.0
2014-Jul-21 20:18N 51°17' E 004°21'0 0.0
2014-Jul-21 19:32N 51°17' E 004°21'0 0.0
2014-Jul-21 18:32N 51°17' E 004°21'0 0.0
2014-Jul-21 17:29N 51°17' E 004°21'0 0.0
2014-Jul-21 16:31N 51°17' E 004°21'0 0.0
2014-Jul-21 15:28N 51°17' E 004°21'0 0.0
2014-Jul-21 14:33N 51°17' E 004°21'0 0.0
2014-Jul-21 13:30N 51°17' E 004°21'0 0.0
2014-Jul-21 12:32N 51°17' E 004°21'0 0.0
2014-Jul-21 11:32N 51°17' E 004°21'0 0.0
2014-Jul-21 10:28N 51°17' E 004°21'0 0.0
2014-Jul-21 09:28N 51°17' E 004°21'0 0.0
2014-Jul-21 08:33N 51°17' E 004°21'3 2.5
2014-Jul-21 07:33N 51°19' E 004°19'2 1.9
2014-Jul-21 06:34N 51°21' E 004°17'3 2.5
2014-Jul-21 05:33N 51°22' E 004°13'9 8.6
2014-Jul-21 04:34N 51°26' E 004°01'1110.6
2014-Jul-21 03:33N 51°22' E 003°45'10 9.5
2014-Jul-21 02:33N 51°25' E 003°31'1312.6
2014-Jul-21 01:33N 51°24' E 003°11'1212.5
2014-Jul-21 00:33N 51°22' E 002°51'1110.5
2014-Jul-20 23:33N 51°22' E 002°34'1413.6
2014-Jul-20 22:33N 51°16' E 002°15'1514.8
2014-Jul-20 21:33N 51°09' E 001°54'  
Track history (hours):
 
Tides and Currents Weather Stations Pressure Air Temp Water Temp Dewpoint Dewpoint Depression Visibility Wind Speed Wind Dir Waves Ship Positions

Normed Antwerpen

Last reported at 2014-Jul-30 21:14 UTC. Time now 2014-Jul-31 03:27 UTC.
Position N 50°25' W 001°23'.

Length 130 m; draft 6.2 m.

Type: Ship. MMSI: 305210993.

Date/timePositionNaut miles runAvg speedWind from/ knotsBaromVisibWave heightAir tempDewpointWater temp
2014-Jul-30 21:14N 50°25' W 001°23'710.0
2014-Jul-30 20:33N 50°28' W 001°13'1110.6
2014-Jul-30 19:33N 50°35' W 001°01'1010.0
2014-Jul-30 18:33N 50°45' W 001°05'1010.3
2014-Jul-30 17:34N 50°50' W 001°19'6 6.3
2014-Jul-30 16:34N 50°54' W 001°26'0 0.0
2014-Jul-30 15:12N 50°54' W 001°26'0 0.0
2014-Jul-30 14:33N 50°54' W 001°26'0 0.0
2014-Jul-30 13:32N 50°54' W 001°26'0 0.0
2014-Jul-30 12:20N 50°54' W 001°26'0 0.0
2014-Jul-30 11:28N 50°54' W 001°26'0 0.0
2014-Jul-30 10:28N 50°54' W 001°26'0 0.0
2014-Jul-30 09:33N 50°54' W 001°26'0 0.0
2014-Jul-30 08:30N 50°54' W 001°26'0 0.0
2014-Jul-30 07:33N 50°54' W 001°26'0 0.0
2014-Jul-30 06:32N 50°54' W 001°26'0 0.0
2014-Jul-30 05:32N 50°54' W 001°26'0 0.0
2014-Jul-30 04:31N 50°54' W 001°26'0 0.0
2014-Jul-30 03:31N 50°54' W 001°26'0 0.0
2014-Jul-30 02:27N 50°54' W 001°26'0 0.0
2014-Jul-30 01:33N 50°54' W 001°26'0 0.0
2014-Jul-30 00:30N 50°54' W 001°26'0 0.0
2014-Jul-29 23:32N 50°54' W 001°26'0 0.0
2014-Jul-29 22:29N 50°54' W 001°26'0 0.0
2014-Jul-29 21:31N 50°54' W 001°26'0 0.0
2014-Jul-29 17:30N 50°54' W 001°26'0 0.0
2014-Jul-29 16:29N 50°54' W 001°26'0 0.0
2014-Jul-29 11:15N 50°54' W 001°26'0 0.0
2014-Jul-29 10:18N 50°54' W 001°26'0 0.0
2014-Jul-29 09:32N 50°54' W 001°26'0 0.0
2014-Jul-29 08:29N 50°54' W 001°26'0 0.0
2014-Jul-29 07:31N 50°54' W 001°26'0 0.0
2014-Jul-29 06:28N 50°54' W 001°26'0 0.0
2014-Jul-29 05:25N 50°54' W 001°26'0 0.0
2014-Jul-29 04:33N 50°54' W 001°26'0 0.0
2014-Jul-29 03:33N 50°54' W 001°26'0 0.0
2014-Jul-29 02:29N 50°54' W 001°26'0 0.0
2014-Jul-29 01:29N 50°54' W 001°26'0 0.0
2014-Jul-29 00:31N 50°54' W 001°26'0 0.0
2014-Jul-28 23:31N 50°54' W 001°26'0 0.0
2014-Jul-28 22:23N 50°54' W 001°26'0 0.0
2014-Jul-28 21:33N 50°54' W 001°26'0 0.0
2014-Jul-28 20:33N 50°54' W 001°26'0 0.0
2014-Jul-28 18:20N 50°54' W 001°26'1 0.3
2014-Jul-28 15:19N 50°54' W 001°25'7 9.2
2014-Jul-28 14:34N 50°49' W 001°18'1111.3
2014-Jul-28 13:33N 50°43' W 001°02'5 4.6
2014-Jul-28 12:33N 50°39' W 001°01'0 0.1
2014-Jul-28 11:30N 50°39' W 001°00'0 0.1
2014-Jul-28 10:32N 50°39' W 001°00'0 0.0
2014-Jul-28 09:29N 50°39' W 001°00'0 0.0
2014-Jul-28 08:25N 50°39' W 001°00'0 0.0
2014-Jul-28 07:28N 50°39' W 001°00'3 3.2
2014-Jul-28 06:33N 50°37' W 000°56'1110.7
2014-Jul-28 05:33N 50°37' W 000°39'1111.3
2014-Jul-28 04:33N 50°35' W 000°22'2613.2
2014-Jul-28 02:33N 50°35' E 000°20'1313.3
2014-Jul-28 01:33N 50°40' E 000°39'1212.4
2014-Jul-28 00:33N 50°47' E 000°55'1211.5
2014-Jul-27 23:33N 50°54' E 001°09'1211.5
2014-Jul-27 22:31N 51°02' E 001°24'1313.8
2014-Jul-27 21:33N 51°11' E 001°40'1515.1
2014-Jul-27 20:34N 51°23' E 001°54'1514.6
2014-Jul-27 19:34N 51°35' E 002°08'1414.2
2014-Jul-27 18:34N 51°46' E 002°22'1313.0
2014-Jul-27 17:33N 51°55' E 002°37'1512.5
2014-Jul-27 16:22N 52°06' E 002°53'6012.4
2014-Jul-27 11:31N 52°54' E 003°52'1413.9
2014-Jul-27 10:32N 53°03' E 004°10'1313.4
2014-Jul-27 09:32N 53°13' E 004°25'1513.1
2014-Jul-27 08:22N 53°27' E 004°36'1111.8
2014-Jul-27 07:28N 53°31' E 004°52'1111.8
2014-Jul-27 06:33N 53°35' E 005°09'1211.7
2014-Jul-27 05:33N 53°39' E 005°28'1312.5
2014-Jul-27 04:33N 53°43' E 005°48'1413.8
2014-Jul-27 03:32N 53°47' E 006°10'5513.5
2014-Jul-26 23:30N 53°58' E 007°41'1111.6
2014-Jul-26 22:34N 53°52' E 007°57'1211.6
2014-Jul-26 21:33N 53°45' E 008°13'1111.1
2014-Jul-26 20:33N 53°38' E 008°27'8 7.8
2014-Jul-26 19:34N 53°31' E 008°31'1212.5
2014-Jul-26 18:34N 53°18' E 008°30'1010.3
2014-Jul-26 17:33N 53°09' E 008°38'5 5.0
2014-Jul-26 16:32N 53°06' E 008°44'0 0.0
2014-Jul-26 15:32N 53°06' E 008°44'0 0.0
2014-Jul-26 14:33N 53°06' E 008°44'0 0.0
2014-Jul-26 13:31N 53°06' E 008°44'0 0.0
2014-Jul-26 12:33N 53°06' E 008°44'0 0.0
2014-Jul-26 11:33N 53°06' E 008°44'0 0.0
2014-Jul-26 10:33N 53°06' E 008°44'0 0.0
2014-Jul-26 09:33N 53°06' E 008°44'0 0.0
2014-Jul-26 08:33N 53°06' E 008°44'0 0.0
2014-Jul-26 07:33N 53°06' E 008°44'0 0.0
2014-Jul-26 06:33N 53°06' E 008°44'0 0.0
2014-Jul-26 05:33N 53°06' E 008°44'0 0.0
2014-Jul-26 04:33N 53°06' E 008°44'0 0.0
2014-Jul-26 03:33N 53°06' E 008°44'0 0.0
2014-Jul-26 02:33N 53°06' E 008°44'0 0.0
2014-Jul-26 01:34N 53°06' E 008°44'0 0.0
2014-Jul-26 00:34N 53°06' E 008°44'0 0.0
2014-Jul-25 23:33N 53°06' E 008°44'0 0.0
2014-Jul-25 22:33N 53°06' E 008°44'0 0.0
2014-Jul-25 21:33N 53°06' E 008°44'0 0.0
2014-Jul-25 20:33N 53°06' E 008°44'3 2.8
2014-Jul-25 19:33N 53°07' E 008°40'8 7.8
2014-Jul-25 18:33N 53°12' E 008°30'9 8.9
2014-Jul-25 17:33N 53°21' E 008°30'1010.1
2014-Jul-25 16:33N 53°31' E 008°33'9 9.4
2014-Jul-25 15:33N 53°39' E 008°24'1111.1
2014-Jul-25 14:33N 53°46' E 008°10'1111.2
2014-Jul-25 13:33N 53°52' E 007°54'1211.9
2014-Jul-25 12:33N 53°54' E 007°33'5313.2
2014-Jul-25 08:32N 53°41' E 006°06'1414.0
2014-Jul-25 07:34N 53°37' E 005°44'1414.3
2014-Jul-25 06:33N 53°32' E 005°21'1414.4
2014-Jul-25 05:34N 53°28' E 004°59'1413.9
2014-Jul-25 04:33N 53°19' E 004°40'1515.3
2014-Jul-25 03:33N 53°06' E 004°28'1515.1
2014-Jul-25 02:33N 52°52' E 004°16'1514.6
2014-Jul-25 01:33N 52°41' E 004°01'1514.6
2014-Jul-25 00:33N 52°31' E 003°44'1414.1
2014-Jul-24 23:33N 52°19' E 003°31'1413.7
2014-Jul-24 22:33N 52°05' E 003°26'1313.0
2014-Jul-24 21:33N 51°53' E 003°22'1212.1
2014-Jul-24 20:33N 51°42' E 003°12'1211.9
2014-Jul-24 19:33N 51°31' E 003°05'7 7.5
2014-Jul-24 18:34N 51°24' E 003°11'1615.7
2014-Jul-24 17:34N 51°26' E 003°36'1312.5
2014-Jul-24 16:33N 51°22' E 003°55'1010.5
2014-Jul-24 15:34N 51°24' E 004°11'9 9.1
2014-Jul-24 14:34N 51°17' E 004°20'0 0.5
2014-Jul-24 13:33N 51°16' E 004°20'3 2.7
2014-Jul-24 12:33N 51°15' E 004°24'0 0.0
2014-Jul-24 11:33N 51°15' E 004°24'0 0.0
2014-Jul-24 10:33N 51°15' E 004°24'0 0.0
2014-Jul-24 09:32N 51°15' E 004°24'0 0.0
2014-Jul-24 08:32N 51°15' E 004°24'0 0.0
2014-Jul-24 07:31N 51°15' E 004°24'0 0.0
2014-Jul-24 06:31N 51°15' E 004°24'0 0.0
2014-Jul-24 05:34N 51°15' E 004°24'0 0.0
2014-Jul-24 04:33N 51°15' E 004°24'0 0.0
2014-Jul-24 03:33N 51°15' E 004°24'0 0.0
2014-Jul-24 02:32N 51°15' E 004°24'0 0.0
2014-Jul-24 01:32N 51°15' E 004°24'0 0.0
2014-Jul-24 00:31N 51°15' E 004°24'0 0.0
2014-Jul-23 23:31N 51°15' E 004°24'0 0.0
2014-Jul-23 22:33N 51°15' E 004°24'0 0.0
2014-Jul-23 21:33N 51°15' E 004°24'0 0.0
2014-Jul-23 20:33N 51°15' E 004°24'0 0.0
2014-Jul-23 19:32N 51°15' E 004°24'0 0.0
2014-Jul-23 18:32N 51°15' E 004°24'0 0.0
2014-Jul-23 17:28N 51°15' E 004°24'0 0.0
2014-Jul-23 16:31N 51°15' E 004°24'0 0.0
2014-Jul-23 15:33N 51°15' E 004°24'0 0.0
2014-Jul-23 14:33N 51°15' E 004°24'0 0.0
2014-Jul-23 13:33N 51°15' E 004°24'0 0.0
2014-Jul-23 12:32N 51°15' E 004°24'0 0.0
2014-Jul-23 11:29N 51°15' E 004°24'0 0.0
2014-Jul-23 10:31N 51°15' E 004°24'0 0.0
2014-Jul-23 09:31N 51°15' E 004°24'0 0.0
2014-Jul-23 08:33N 51°15' E 004°24'0 0.0
2014-Jul-23 07:33N 51°15' E 004°24'0 0.0
2014-Jul-23 06:33N 51°15' E 004°24'0 0.0
2014-Jul-23 05:32N 51°15' E 004°24'0 0.0
2014-Jul-23 04:32N 51°15' E 004°24'0 0.0
2014-Jul-23 03:31N 51°15' E 004°24'0 0.0
2014-Jul-23 02:31N 51°15' E 004°24'0 0.0
2014-Jul-23 01:30N 51°15' E 004°24'0 0.0
2014-Jul-23 00:33N 51°15' E 004°24'0 0.0
2014-Jul-22 23:33N 51°15' E 004°24'0 0.0
2014-Jul-22 22:32N 51°15' E 004°24'0 0.0
2014-Jul-22 21:32N 51°15' E 004°24'0 0.0
2014-Jul-22 20:31N 51°15' E 004°24'0 0.0
2014-Jul-22 19:31N 51°15' E 004°24'0 0.0
2014-Jul-22 18:33N 51°15' E 004°24'0 0.0
2014-Jul-22 17:33N 51°15' E 004°24'0 0.0
2014-Jul-22 16:33N 51°15' E 004°24'0 0.3
2014-Jul-22 15:33N 51°15' E 004°24'3 2.8
2014-Jul-22 14:33N 51°17' E 004°20'0 0.2
2014-Jul-22 13:31N 51°17' E 004°21'0 0.0
2014-Jul-22 12:31N 51°17' E 004°21'0 0.0
2014-Jul-22 11:27N 51°17' E 004°21'0 0.0
2014-Jul-22 10:33N 51°17' E 004°21'0 0.0
2014-Jul-22 09:32N 51°17' E 004°21'0 0.0
2014-Jul-22 08:29N 51°17' E 004°21'0 0.0
2014-Jul-22 07:29N 51°17' E 004°21'0 0.0
2014-Jul-22 06:31N 51°17' E 004°21'0 0.0
2014-Jul-22 05:31N 51°17' E 004°21'0 0.0
2014-Jul-22 04:30N 51°17' E 004°21'0 0.0
2014-Jul-22 03:33N 51°17' E 004°21'0 0.0
2014-Jul-22 02:32N 51°17' E 004°21'0 0.0
2014-Jul-22 01:32N 51°17' E 004°21'0 0.0
2014-Jul-22 00:29N 51°17' E 004°21'0 0.0
2014-Jul-21 23:31N 51°17' E 004°21'0 0.0
2014-Jul-21 22:31N 51°17' E 004°21'0 0.0
2014-Jul-21 21:27N 51°17' E 004°21'0 0.0
2014-Jul-21 20:33N 51°17' E 004°21'0 0.0
2014-Jul-21 20:18N 51°17' E 004°21'0 0.0
2014-Jul-21 19:32N 51°17' E 004°21'0 0.0
2014-Jul-21 18:32N 51°17' E 004°21'0 0.0
2014-Jul-21 17:29N 51°17' E 004°21'0 0.0
2014-Jul-21 16:31N 51°17' E 004°21'0 0.0
2014-Jul-21 15:28N 51°17' E 004°21'0 0.0
2014-Jul-21 14:33N 51°17' E 004°21'0 0.0
2014-Jul-21 13:30N 51°17' E 004°21'0 0.0
2014-Jul-21 12:32N 51°17' E 004°21'0 0.0
2014-Jul-21 11:32N 51°17' E 004°21'0 0.0
2014-Jul-21 10:28N 51°17' E 004°21'0 0.0
2014-Jul-21 09:28N 51°17' E 004°21'0 0.0
2014-Jul-21 08:33N 51°17' E 004°21'3 2.5
2014-Jul-21 07:33N 51°19' E 004°19'2 1.9
2014-Jul-21 06:34N 51°21' E 004°17'3 2.5
2014-Jul-21 05:33N 51°22' E 004°13'9 8.6
2014-Jul-21 04:34N 51°26' E 004°01'1110.6
2014-Jul-21 03:33N 51°22' E 003°45'10 9.5
2014-Jul-21 02:33N 51°25' E 003°31'1312.6
2014-Jul-21 01:33N 51°24' E 003°11'1212.5
2014-Jul-21 00:33N 51°22' E 002°51'1110.5
2014-Jul-20 23:33N 51°22' E 002°34'1413.6
2014-Jul-20 22:33N 51°16' E 002°15'1514.8
2014-Jul-20 21:33N 51°09' E 001°54'  

Dump ship's entire track history